Ana Sayfa
METAR-TAF:

METAR-TAF

Havaalanları :

William H. Morse State Airport

Bennington, Vermont, Amerika Birleşik Devletleri

Enlem: 42-53-24N, Boylam: 073-14-47W, yükseklik: 252 m

Güncel hava durumu gözlemi

Rapor saat 07:54 UTC de 44 dakika önce yapıldı.
Rüzgar doğu/güneydoğudan 10 kt ve 23 kt'a kadar ani rüzgarlar
Sıcaklık 9°C
Nem 81%
Basınç 1010 hPa
Görüş mesafesi: 16.1 km
6500 ft yükseklikte az bulutlu
8000 ft yükseklikte çok bulutlu
hafif yağmur

METAR: KDDH 140754Z AUTO 12010G23KT 10SM -RA FEW065 OVC080 09/06 A2982 RMK AO2 SLP100 P0002 T00940056

Saat: 03:38 (08:38 UTC)


TAF: eksik

4.000'den fazla havaalanı için hava durumu gözlemleri ve tahminleri (METAR ve TAF raporları).

Kullanılabilir istasyonlar harita üzerinde sarı ve kırmızı noktalarla gösterilir.

İstasyonun adını görmek için fareyi noktanın üzerinde gezdirin.

Sonrasında hava gözlem ve tahminlerini görmek için tıklayın.

Haritayı değiştirmek için: yaklaştırmak için siyah artı işaretli yeşil düğmeye ve uzaklaştırmak için de eksi işaretli düğmeye hızla tıklayın; bitişik haritalar için yeşil okları kullanın.


METAR-TAF: